createdAt,value
2019-02-23T00:00:40.502Z,5.78
2019-02-23T00:01:17.827Z,5.86
2019-02-23T00:01:53.837Z,5.87
2019-02-23T00:02:29.494Z,5.88
2019-02-23T00:03:04.888Z,5.82
2019-02-23T00:03:40.642Z,5.92
2019-02-23T00:04:16.540Z,5.85
2019-02-23T00:04:51.937Z,5.77
2019-02-23T00:05:27.348Z,5.76
2019-02-23T00:06:02.794Z,5.75
2019-02-23T00:06:38.184Z,5.67
2019-02-23T00:07:13.608Z,5.66
2019-02-23T00:07:49.289Z,5.64
2019-02-23T00:08:24.695Z,5.64
2019-02-23T00:09:00.108Z,5.67
2019-02-23T00:09:35.839Z,5.84
2019-02-23T00:10:11.527Z,5.75
2019-02-23T00:10:46.916Z,5.75
2019-02-23T00:11:25.438Z,5.72
2019-02-23T00:12:00.901Z,5.65
2019-02-23T00:12:36.304Z,5.63
2019-02-23T00:13:12.218Z,5.72
2019-02-23T00:13:47.696Z,5.66
2019-02-23T00:14:23.373Z,5.61
2019-02-23T00:14:58.816Z,5.57
2019-02-23T00:15:34.475Z,5.57
2019-02-23T00:16:10.167Z,5.59
2019-02-23T00:16:45.869Z,5.59
2019-02-23T00:17:22.155Z,5.63
2019-02-23T00:17:58.054Z,5.74
2019-02-23T00:18:33.469Z,5.71
2019-02-23T00:19:08.861Z,5.67
2019-02-23T00:19:44.255Z,5.62
2019-02-23T00:20:20.203Z,5.64
2019-02-23T00:20:55.868Z,5.63
2019-02-23T00:21:31.838Z,5.58
2019-02-23T00:22:07.278Z,5.50
2019-02-23T00:22:42.931Z,5.64
2019-02-23T00:23:18.669Z,5.65
2019-02-23T00:23:54.357Z,5.59
2019-02-23T00:24:30.065Z,5.55
2019-02-23T00:25:05.457Z,5.63
2019-02-23T00:25:40.856Z,5.55
2019-02-23T00:26:16.532Z,5.54
2019-02-23T00:26:52.229Z,5.53
2019-02-23T00:27:27.648Z,5.47
2019-02-23T00:28:03.318Z,5.48
2019-02-23T00:28:39.022Z,5.50
2019-02-23T00:29:14.696Z,5.51
2019-02-23T00:29:50.666Z,5.46
2019-02-23T00:30:26.095Z,5.47
2019-02-23T00:31:01.628Z,5.45
2019-02-23T00:31:37.224Z,5.48
2019-02-23T00:32:13.203Z,5.62
2019-02-23T00:32:48.581Z,5.51
2019-02-23T00:33:24.262Z,5.56
2019-02-23T00:34:00.225Z,5.48
2019-02-23T00:34:35.905Z,5.56
2019-02-23T00:35:11.568Z,5.62
2019-02-23T00:35:46.957Z,5.62
2019-02-23T00:36:22.441Z,5.57
2019-02-23T00:36:58.149Z,5.52
2019-02-23T00:37:33.561Z,5.48
2019-02-23T00:38:09.055Z,5.51
2019-02-23T00:38:44.450Z,5.43
2019-02-23T00:39:20.413Z,5.45
2019-02-23T00:39:57.568Z,5.36
2019-02-23T00:40:32.933Z,5.43
2019-02-23T00:41:08.596Z,5.38
2019-02-23T00:41:44.550Z,5.57
2019-02-23T00:42:20.491Z,5.51
2019-02-23T00:42:55.884Z,5.60
2019-02-23T00:43:31.281Z,5.54
2019-02-23T00:44:07.033Z,5.48
2019-02-23T00:44:42.420Z,5.38
2019-02-23T00:45:17.835Z,5.39
2019-02-23T00:45:53.477Z,5.39
2019-02-23T00:46:29.154Z,5.42
2019-02-23T00:47:04.593Z,5.49
2019-02-23T00:47:39.969Z,5.44
2019-02-23T00:48:16.004Z,5.41
2019-02-23T00:48:51.662Z,5.55
2019-02-23T00:49:35.942Z,5.53
2019-02-23T00:50:04.694Z,5.58
2019-02-23T00:50:40.378Z,5.64
2019-02-23T00:51:16.150Z,5.65
2019-02-23T00:51:51.969Z,5.66
2019-02-23T00:52:27.823Z,5.48
2019-02-23T00:53:03.535Z,5.39
2019-02-23T00:53:38.957Z,5.36
2019-02-23T00:54:14.435Z,5.38
2019-02-23T00:54:49.845Z,5.33
2019-02-23T00:55:25.251Z,5.27
2019-02-23T00:56:00.736Z,5.22
2019-02-23T00:56:36.433Z,5.21
2019-02-23T00:57:11.826Z,5.23
2019-02-23T00:57:47.474Z,5.25
2019-02-23T00:58:22.868Z,5.18
2019-02-23T00:58:58.614Z,5.20
2019-02-23T00:59:34.258Z,5.14
2019-02-23T01:00:11.492Z,5.14
2019-02-23T01:00:47.168Z,5.11
2019-02-23T01:01:22.805Z,5.09
2019-02-23T01:01:58.474Z,5.09
2019-02-23T01:02:34.131Z,5.05
2019-02-23T01:03:09.530Z,5.03
2019-02-23T01:03:45.206Z,5.00
2019-02-23T01:04:21.192Z,4.99
2019-02-23T01:04:57.167Z,5.00
2019-02-23T01:05:32.664Z,5.00
2019-02-23T01:06:08.050Z,5.02
2019-02-23T01:06:43.489Z,5.01
2019-02-23T01:07:18.894Z,4.99
2019-02-23T01:07:54.298Z,4.98
2019-02-23T01:08:30.128Z,4.97
2019-02-23T01:09:06.180Z,4.99
2019-02-23T01:09:42.118Z,5.00
2019-02-23T01:10:19.417Z,5.02
2019-02-23T01:10:58.071Z,5.05
2019-02-23T01:11:31.845Z,5.06
2019-02-23T01:12:07.265Z,4.97
2019-02-23T01:12:42.651Z,5.00
2019-02-23T01:13:18.048Z,4.98
2019-02-23T01:13:53.687Z,4.96
2019-02-23T01:14:29.102Z,5.10
2019-02-23T01:15:04.986Z,5.16
2019-02-23T01:15:40.405Z,5.15
2019-02-23T01:16:16.082Z,5.18
2019-02-23T01:16:51.752Z,5.10
2019-02-23T01:17:27.147Z,5.06
2019-02-23T01:18:02.549Z,4.99
2019-02-23T01:18:37.951Z,5.06
2019-02-23T01:19:13.439Z,5.02
2019-02-23T01:19:48.845Z,4.98
2019-02-23T01:20:24.329Z,5.00
2019-02-23T01:20:59.762Z,4.96
2019-02-23T01:21:35.694Z,4.95
2019-02-23T01:22:11.354Z,4.93
2019-02-23T01:22:46.738Z,5.01
2019-02-23T01:23:22.155Z,5.18
2019-02-23T01:23:57.580Z,5.08
2019-02-23T01:24:33.308Z,4.99
2019-02-23T01:25:09.351Z,4.99
2019-02-23T01:25:45.026Z,4.95
2019-02-23T01:26:20.991Z,4.93
2019-02-23T01:26:56.396Z,4.89
2019-02-23T01:27:32.086Z,4.86
2019-02-23T01:28:07.752Z,4.87
2019-02-23T01:28:43.379Z,4.96
2019-02-23T01:29:18.775Z,5.10
2019-02-23T01:29:54.412Z,5.15
2019-02-23T01:30:30.055Z,5.13
2019-02-23T01:31:05.774Z,5.21
2019-02-23T01:31:41.438Z,5.22
2019-02-23T01:32:17.409Z,5.14
2019-02-23T01:32:53.074Z,5.10
2019-02-23T01:33:28.748Z,5.21
2019-02-23T01:34:04.498Z,5.21
2019-02-23T01:34:40.180Z,5.18
2019-02-23T01:35:15.823Z,5.12
2019-02-23T01:35:51.271Z,5.13
2019-02-23T01:36:26.911Z,5.09
2019-02-23T01:37:02.586Z,5.08
2019-02-23T01:37:38.246Z,5.08
2019-02-23T01:38:14.223Z,5.12
2019-02-23T01:38:49.896Z,5.20
2019-02-23T01:39:25.315Z,5.20
2019-02-23T01:40:00.840Z,5.17
2019-02-23T01:40:36.257Z,5.16
2019-02-23T01:41:11.958Z,5.14
2019-02-23T01:41:47.640Z,5.15
2019-02-23T01:42:23.282Z,5.19
2019-02-23T01:42:58.973Z,5.16
2019-02-23T01:43:34.654Z,5.15
2019-02-23T01:44:10.305Z,5.14
2019-02-23T01:44:45.958Z,5.16
2019-02-23T01:45:21.551Z,5.15
2019-02-23T01:45:57.277Z,5.15
2019-02-23T01:46:32.969Z,5.17
2019-02-23T01:47:08.494Z,5.23
2019-02-23T01:47:44.445Z,5.17
2019-02-23T01:48:19.846Z,5.14
2019-02-23T01:48:55.535Z,5.16
2019-02-23T01:49:30.977Z,5.24
2019-02-23T01:50:07.449Z,5.25
2019-02-23T01:50:42.827Z,5.25
2019-02-23T01:51:18.589Z,5.21
2019-02-23T01:51:53.986Z,5.17
2019-02-23T01:52:29.405Z,5.22
2019-02-23T01:53:05.113Z,5.19
2019-02-23T01:53:40.764Z,5.20
2019-02-23T01:54:16.429Z,5.19
2019-02-23T01:54:51.827Z,5.14
2019-02-23T01:55:27.229Z,5.12
2019-02-23T01:56:02.688Z,5.08
2019-02-23T01:56:38.685Z,5.04
2019-02-23T01:57:14.359Z,5.03
2019-02-23T01:57:49.767Z,5.13
2019-02-23T01:58:25.162Z,5.23
2019-02-23T01:59:00.854Z,5.24
2019-02-23T01:59:36.574Z,5.20
2019-02-23T02:00:14.142Z,5.13
2019-02-23T02:00:50.077Z,5.18
2019-02-23T02:01:25.769Z,5.25
2019-02-23T02:02:01.187Z,5.20
2019-02-23T02:02:37.176Z,5.21
2019-02-23T02:03:12.566Z,5.11
2019-02-23T02:03:48.237Z,5.14
2019-02-23T02:04:23.630Z,5.06
2019-02-23T02:04:59.321Z,5.26
2019-02-23T02:05:34.987Z,5.18
2019-02-23T02:06:10.690Z,5.16
2019-02-23T02:06:46.206Z,5.10
2019-02-23T02:07:21.570Z,5.09
2019-02-23T02:07:57.003Z,5.13
2019-02-23T02:08:32.623Z,5.12
2019-02-23T02:09:08.391Z,5.19
2019-02-23T02:09:43.978Z,5.17
2019-02-23T02:10:19.373Z,5.14
2019-02-23T02:10:55.061Z,5.07
2019-02-23T02:11:30.572Z,5.08
2019-02-23T02:12:07.619Z,5.05
2019-02-23T02:12:43.025Z,4.97
2019-02-23T02:13:18.961Z,5.04
2019-02-23T02:13:54.614Z,5.07
2019-02-23T02:14:30.179Z,4.98
2019-02-23T02:15:06.517Z,4.98
2019-02-23T02:15:41.913Z,4.99
2019-02-23T02:16:17.409Z,4.91
2019-02-23T02:16:53.091Z,4.92
2019-02-23T02:17:28.796Z,4.90
2019-02-23T02:18:04.209Z,4.87
2019-02-23T02:18:39.720Z,4.87
2019-02-23T02:19:15.400Z,4.93
2019-02-23T02:19:51.046Z,4.99
2019-02-23T02:20:26.547Z,4.95
2019-02-23T02:21:02.226Z,4.92
2019-02-23T02:21:38.231Z,4.91
2019-02-23T02:22:13.659Z,4.92
2019-02-23T02:22:49.335Z,4.95
2019-02-23T02:23:25.015Z,4.87
2019-02-23T02:24:00.445Z,4.93
2019-02-23T02:24:35.891Z,4.88
2019-02-23T02:25:11.560Z,4.89
2019-02-23T02:25:47.284Z,4.95
2019-02-23T02:26:22.923Z,4.95
2019-02-23T02:26:59.251Z,4.87
2019-02-23T02:27:35.195Z,4.90
2019-02-23T02:28:10.951Z,4.83
2019-02-23T02:28:46.613Z,5.00
2019-02-23T02:29:22.019Z,4.97
2019-02-23T02:29:57.952Z,4.96
2019-02-23T02:30:33.430Z,5.02
2019-02-23T02:31:08.850Z,4.91
2019-02-23T02:31:44.295Z,4.87
2019-02-23T02:32:19.786Z,4.93
2019-02-23T02:32:55.220Z,4.91
2019-02-23T02:33:30.933Z,4.94
2019-02-23T02:34:14.461Z,4.90
2019-02-23T02:34:49.822Z,4.81
2019-02-23T02:35:25.231Z,4.81
2019-02-23T02:36:00.691Z,4.74
2019-02-23T02:36:36.121Z,4.73
2019-02-23T02:37:11.833Z,4.69
2019-02-23T02:37:47.225Z,4.67
2019-02-23T02:38:22.879Z,4.64
2019-02-23T02:38:58.578Z,4.63
2019-02-23T02:39:34.001Z,4.60
2019-02-23T02:40:10.102Z,4.63
2019-02-23T02:40:45.505Z,4.68
2019-02-23T02:41:21.462Z,4.70
2019-02-23T02:41:57.230Z,4.73
2019-02-23T02:42:32.764Z,4.69
2019-02-23T02:43:08.452Z,4.67
2019-02-23T02:43:44.137Z,4.64
2019-02-23T02:44:19.659Z,4.65
2019-02-23T02:44:55.054Z,4.68
2019-02-23T02:45:30.535Z,4.64
2019-02-23T02:46:06.536Z,4.57
2019-02-23T02:46:42.599Z,4.62
2019-02-23T02:47:18.036Z,4.57
2019-02-23T02:47:53.946Z,4.57
2019-02-23T02:48:29.651Z,4.53
2019-02-23T02:49:05.791Z,4.58
2019-02-23T02:49:41.205Z,4.54
2019-02-23T02:50:24.155Z,4.63
2019-02-23T02:50:54.006Z,4.61
2019-02-23T02:51:29.398Z,4.56
2019-02-23T02:52:04.828Z,4.51
2019-02-23T02:52:40.815Z,4.56
2019-02-23T02:53:16.244Z,4.57
2019-02-23T02:53:51.642Z,4.65
2019-02-23T02:54:27.346Z,4.70
2019-02-23T02:55:02.758Z,4.56
2019-02-23T02:55:38.170Z,4.66
2019-02-23T02:56:13.574Z,4.63
2019-02-23T02:56:48.965Z,4.58
2019-02-23T02:57:24.824Z,4.54
2019-02-23T02:58:00.555Z,4.55
2019-02-23T02:58:35.970Z,4.67
2019-02-23T02:59:11.611Z,4.53
2019-02-23T02:59:47.316Z,4.41
2019-02-23T03:00:22.733Z,4.63
2019-02-23T03:00:58.191Z,4.59
2019-02-23T03:01:33.600Z,4.51
2019-02-23T03:02:09.307Z,4.49
2019-02-23T03:02:44.949Z,4.47
2019-02-23T03:03:20.602Z,4.52
2019-02-23T03:03:56.319Z,4.43
2019-02-23T03:04:31.761Z,4.45
2019-02-23T03:05:07.207Z,4.34
2019-02-23T03:05:42.597Z,4.39
2019-02-23T03:06:18.032Z,4.36
2019-02-23T03:06:53.465Z,4.32
2019-02-23T03:07:28.900Z,4.28
2019-02-23T03:08:04.727Z,4.20
2019-02-23T03:08:40.225Z,4.17
2019-02-23T03:09:15.647Z,4.22
2019-02-23T03:09:51.124Z,4.20
2019-02-23T03:10:26.559Z,4.20
2019-02-23T03:11:02.345Z,4.24
2019-02-23T03:11:37.741Z,4.22
2019-02-23T03:12:13.187Z,4.19
2019-02-23T03:12:48.959Z,4.20
2019-02-23T03:13:24.394Z,4.33
2019-02-23T03:14:00.645Z,4.28
2019-02-23T03:14:36.320Z,4.26
2019-02-23T03:15:11.828Z,4.42
2019-02-23T03:15:47.248Z,4.38
2019-02-23T03:16:22.652Z,4.28
2019-02-23T03:16:58.365Z,4.32
2019-02-23T03:17:34.073Z,4.41
2019-02-23T03:18:09.476Z,4.36
2019-02-23T03:18:45.181Z,4.30
2019-02-23T03:19:20.566Z,4.32
2019-02-23T03:19:56.621Z,4.47
2019-02-23T03:20:36.638Z,4.37
2019-02-23T03:21:09.717Z,4.45
2019-02-23T03:21:45.396Z,4.40
2019-02-23T03:22:21.110Z,4.33
2019-02-23T03:22:56.542Z,4.29
2019-02-23T03:23:32.221Z,4.20
2019-02-23T03:24:07.703Z,4.16
2019-02-23T03:24:43.360Z,4.22
2019-02-23T03:25:19.020Z,4.21
2019-02-23T03:25:54.464Z,4.10
2019-02-23T03:26:29.864Z,4.08
2019-02-23T03:27:05.530Z,4.06
2019-02-23T03:27:40.966Z,4.01
2019-02-23T03:28:16.401Z,4.03
2019-02-23T03:28:51.924Z,4.07
2019-02-23T03:29:27.631Z,4.04
2019-02-23T03:30:03.054Z,4.12
2019-02-23T03:30:39.051Z,4.05
2019-02-23T03:31:14.429Z,4.15
2019-02-23T03:31:49.844Z,4.12
2019-02-23T03:32:25.599Z,4.17
2019-02-23T03:33:01.046Z,4.18
2019-02-23T03:33:36.469Z,4.11
2019-02-23T03:34:11.867Z,4.11
2019-02-23T03:34:47.256Z,4.09
2019-02-23T03:35:22.664Z,4.19
2019-02-23T03:35:58.372Z,4.11
2019-02-23T03:36:34.353Z,3.97
2019-02-23T03:37:09.730Z,4.17
2019-02-23T03:37:45.249Z,4.21
2019-02-23T03:38:20.657Z,4.15
2019-02-23T03:38:56.338Z,4.08
2019-02-23T03:39:32.097Z,4.05
2019-02-23T03:40:09.126Z,4.05
2019-02-23T03:40:44.863Z,4.08
2019-02-23T03:41:20.263Z,3.99
2019-02-23T03:41:55.981Z,4.06
2019-02-23T03:42:31.647Z,4.05
2019-02-23T03:43:07.098Z,4.02
2019-02-23T03:43:42.780Z,3.99
2019-02-23T03:44:18.197Z,3.95
2019-02-23T03:44:53.575Z,4.03
2019-02-23T03:45:29.004Z,4.05
2019-02-23T03:46:04.650Z,4.06
2019-02-23T03:46:40.073Z,4.06
2019-02-23T03:47:15.776Z,4.00
2019-02-23T03:47:51.221Z,3.93
2019-02-23T03:48:26.989Z,3.91
2019-02-23T03:49:02.402Z,3.90
2019-02-23T03:49:38.322Z,3.86
2019-02-23T03:50:13.728Z,3.85
2019-02-23T03:50:49.674Z,4.07
2019-02-23T03:51:25.412Z,4.05
2019-02-23T03:52:01.152Z,3.99
2019-02-23T03:52:36.840Z,3.96
2019-02-23T03:53:12.253Z,3.89
2019-02-23T03:53:47.988Z,3.83
2019-02-23T03:54:23.436Z,3.82
2019-02-23T03:54:58.890Z,3.85
2019-02-23T03:55:34.547Z,3.85
2019-02-23T03:56:09.939Z,3.84
2019-02-23T03:56:45.345Z,3.81
2019-02-23T03:57:21.004Z,3.84
2019-02-23T03:57:56.727Z,3.83
2019-02-23T03:58:32.422Z,3.83
2019-02-23T03:59:07.839Z,3.82
2019-02-23T03:59:43.259Z,3.84
2019-02-23T04:00:18.938Z,3.76
2019-02-23T04:00:54.372Z,3.89
2019-02-23T04:01:30.150Z,3.82
2019-02-23T04:02:05.851Z,3.82
2019-02-23T04:02:41.323Z,3.73
2019-02-23T04:03:16.769Z,3.81
2019-02-23T04:03:52.564Z,3.73
2019-02-23T04:04:28.008Z,3.71
2019-02-23T04:05:03.409Z,3.71
2019-02-23T04:05:38.815Z,3.73
2019-02-23T04:06:14.214Z,3.65
2019-02-23T04:06:49.757Z,3.72
2019-02-23T04:07:25.493Z,3.71
2019-02-23T04:08:00.930Z,3.66
2019-02-23T04:08:36.364Z,3.68
2019-02-23T04:09:11.766Z,3.62
2019-02-23T04:09:47.408Z,3.55
2019-02-23T04:10:23.162Z,3.51
2019-02-23T04:10:58.925Z,3.57
2019-02-23T04:11:34.323Z,3.64
2019-02-23T04:12:10.092Z,3.58
2019-02-23T04:12:45.742Z,3.55
2019-02-23T04:13:21.503Z,3.56
2019-02-23T04:13:57.048Z,3.53
2019-02-23T04:14:32.779Z,3.48
2019-02-23T04:15:08.593Z,3.51
2019-02-23T04:15:44.060Z,3.46
2019-02-23T04:16:19.755Z,3.60
2019-02-23T04:16:55.163Z,3.59
2019-02-23T04:17:30.570Z,3.70
2019-02-23T04:18:06.008Z,3.69
2019-02-23T04:18:42.158Z,3.58
2019-02-23T04:19:17.798Z,3.56
2019-02-23T04:19:53.198Z,3.55
2019-02-23T04:20:28.690Z,3.58
2019-02-23T04:21:04.093Z,3.49
2019-02-23T04:21:39.519Z,3.49
2019-02-23T04:22:15.254Z,3.47
2019-02-23T04:22:50.653Z,3.45
2019-02-23T04:23:26.378Z,3.52
2019-02-23T04:24:02.060Z,3.49
2019-02-23T04:24:37.474Z,3.44
2019-02-23T04:25:12.894Z,3.49
2019-02-23T04:25:48.543Z,3.54
2019-02-23T04:26:24.320Z,3.54
2019-02-23T04:27:00.306Z,3.44
2019-02-23T04:27:35.952Z,3.43
2019-02-23T04:28:11.398Z,3.46
2019-02-23T04:28:47.057Z,3.62
2019-02-23T04:29:22.462Z,3.53
2019-02-23T04:29:58.134Z,3.47
2019-02-23T04:30:33.632Z,3.59
2019-02-23T04:31:09.462Z,3.49
2019-02-23T04:31:45.109Z,3.46
2019-02-23T04:32:20.487Z,3.38
2019-02-23T04:32:56.163Z,3.42
2019-02-23T04:33:31.913Z,3.35
2019-02-23T04:34:07.323Z,3.43
2019-02-23T04:34:42.726Z,3.36
2019-02-23T04:35:18.524Z,3.38
2019-02-23T04:35:53.955Z,3.28
2019-02-23T04:36:29.956Z,3.32
2019-02-23T04:37:06.157Z,3.24
2019-02-23T04:37:41.568Z,3.39
2019-02-23T04:38:17.306Z,3.37
2019-02-23T04:38:52.946Z,3.41
2019-02-23T04:39:28.353Z,3.34
2019-02-23T04:40:03.765Z,3.28
2019-02-23T04:40:39.470Z,3.35
2019-02-23T04:41:14.891Z,3.29
2019-02-23T04:41:50.365Z,3.23
2019-02-23T04:42:26.099Z,3.29
2019-02-23T04:43:01.759Z,3.32
2019-02-23T04:43:37.195Z,3.29
2019-02-23T04:44:12.905Z,3.24
2019-02-23T04:44:48.859Z,3.18
2019-02-23T04:45:24.656Z,3.16
2019-02-23T04:46:00.167Z,3.17
2019-02-23T04:46:35.597Z,3.21
2019-02-23T04:47:10.984Z,3.15
2019-02-23T04:47:46.973Z,3.35
2019-02-23T04:48:22.416Z,3.32
2019-02-23T04:48:58.141Z,3.23
2019-02-23T04:49:33.860Z,3.16
2019-02-23T04:50:09.693Z,3.18
2019-02-23T04:50:45.077Z,3.20
2019-02-23T04:51:22.084Z,3.22
2019-02-23T04:51:57.516Z,3.14
2019-02-23T04:52:33.219Z,3.26
2019-02-23T04:53:08.910Z,3.21
2019-02-23T04:53:44.294Z,3.27
2019-02-23T04:54:19.687Z,3.16
2019-02-23T04:54:55.114Z,3.13
2019-02-23T04:55:30.536Z,3.13
2019-02-23T04:56:06.476Z,3.06
2019-02-23T04:56:42.190Z,3.14
2019-02-23T04:57:17.862Z,3.25
2019-02-23T04:57:53.369Z,3.26
2019-02-23T04:58:28.803Z,3.28
2019-02-23T04:59:04.206Z,3.30
2019-02-23T04:59:40.138Z,3.20
2019-02-23T05:00:15.688Z,3.10
2019-02-23T05:00:51.175Z,3.21
2019-02-23T05:01:26.590Z,3.14
2019-02-23T05:02:02.044Z,3.09
2019-02-23T05:02:37.457Z,3.10
2019-02-23T05:03:12.861Z,3.03
2019-02-23T05:03:48.249Z,3.01
2019-02-23T05:04:23.847Z,2.96
2019-02-23T05:04:59.535Z,3.01
2019-02-23T05:05:35.167Z,2.97
2019-02-23T05:06:10.896Z,3.01
2019-02-23T05:06:46.285Z,3.09
2019-02-23T05:07:22.034Z,3.17
2019-02-23T05:07:57.699Z,3.09
2019-02-23T05:08:33.355Z,3.01
2019-02-23T05:09:08.748Z,3.07
2019-02-23T05:09:44.140Z,3.03
2019-02-23T05:10:19.526Z,3.18
2019-02-23T05:10:55.565Z,3.06
2019-02-23T05:11:31.232Z,2.96
2019-02-23T05:12:06.896Z,3.08
2019-02-23T05:12:42.390Z,3.10
2019-02-23T05:13:18.636Z,3.18
2019-02-23T05:13:54.553Z,3.13
2019-02-23T05:14:29.957Z,3.14
2019-02-23T05:15:05.567Z,2.99
2019-02-23T05:15:41.214Z,2.96
2019-02-23T05:16:16.630Z,2.96
2019-02-23T05:16:52.047Z,2.90
2019-02-23T05:17:27.476Z,2.91
2019-02-23T05:18:02.891Z,2.97
2019-02-23T05:18:38.728Z,2.90
2019-02-23T05:19:14.382Z,2.87
2019-02-23T05:19:50.067Z,2.88
2019-02-23T05:20:25.474Z,2.92
2019-02-23T05:21:01.289Z,2.95
2019-02-23T05:21:36.727Z,2.87
2019-02-23T05:22:12.390Z,2.83
2019-02-23T05:22:48.091Z,2.81
2019-02-23T05:23:23.521Z,2.77
2019-02-23T05:23:59.286Z,2.74
2019-02-23T05:24:34.977Z,2.73
2019-02-23T05:25:10.376Z,2.73
2019-02-23T05:25:45.769Z,2.73
2019-02-23T05:26:21.262Z,2.74
2019-02-23T05:26:56.692Z,2.78
2019-02-23T05:27:32.105Z,2.75
2019-02-23T05:28:07.536Z,2.86
2019-02-23T05:28:42.945Z,2.83
2019-02-23T05:29:18.601Z,2.81
2019-02-23T05:29:54.024Z,2.79
2019-02-23T05:30:29.532Z,2.85
2019-02-23T05:31:05.269Z,2.80
2019-02-23T05:31:41.002Z,2.84
2019-02-23T05:32:16.432Z,2.81
2019-02-23T05:32:52.157Z,2.77
2019-02-23T05:33:27.909Z,2.77
2019-02-23T05:34:03.359Z,2.77
2019-02-23T05:34:38.993Z,2.76
2019-02-23T05:35:14.441Z,2.74
2019-02-23T05:35:50.133Z,2.72
2019-02-23T05:36:25.579Z,2.69
2019-02-23T05:37:00.998Z,2.71
2019-02-23T05:37:36.640Z,2.81
2019-02-23T05:38:12.052Z,2.76
2019-02-23T05:38:47.833Z,2.72
2019-02-23T05:39:23.670Z,2.75
2019-02-23T05:39:59.361Z,2.70
2019-02-23T05:40:35.077Z,2.64
2019-02-23T05:41:10.800Z,2.65
2019-02-23T05:41:46.427Z,2.68
2019-02-23T05:42:22.111Z,2.78
2019-02-23T05:43:01.239Z,2.79
2019-02-23T05:43:34.939Z,2.68
2019-02-23T05:44:10.351Z,2.66
2019-02-23T05:44:46.015Z,2.63
2019-02-23T05:45:21.411Z,2.60
2019-02-23T05:45:56.887Z,2.70
2019-02-23T05:46:32.303Z,2.70
2019-02-23T05:47:07.813Z,2.67
2019-02-23T05:47:43.797Z,2.62
2019-02-23T05:48:22.375Z,2.59
2019-02-23T05:48:57.788Z,2.68
2019-02-23T05:49:33.203Z,2.69
2019-02-23T05:50:08.909Z,2.64
2019-02-23T05:50:44.559Z,2.62
2019-02-23T05:51:20.459Z,2.59
2019-02-23T05:51:55.903Z,2.61
2019-02-23T05:52:31.311Z,2.59
2019-02-23T05:53:06.733Z,2.59
2019-02-23T05:53:42.401Z,2.55
2019-02-23T05:54:17.818Z,2.58
2019-02-23T05:54:53.567Z,2.54
2019-02-23T05:55:29.098Z,2.54
2019-02-23T05:56:04.795Z,2.55
2019-02-23T05:56:40.208Z,2.55
2019-02-23T05:57:15.600Z,2.56
2019-02-23T05:57:51.088Z,2.59
2019-02-23T05:58:26.868Z,2.64
2019-02-23T05:59:02.296Z,2.55
2019-02-23T05:59:38.025Z,2.61
2019-02-23T06:00:13.929Z,2.56
2019-02-23T06:00:49.342Z,2.57
2019-02-23T06:01:24.745Z,2.51
2019-02-23T06:02:00.449Z,2.50
2019-02-23T06:02:35.849Z,2.51
2019-02-23T06:03:11.824Z,2.49
2019-02-23T06:03:47.222Z,2.47
2019-02-23T06:04:22.616Z,2.52
2019-02-23T06:04:58.280Z,2.52
2019-02-23T06:05:33.664Z,2.53
2019-02-23T06:06:09.363Z,2.52
2019-02-23T06:06:45.059Z,2.52
2019-02-23T06:07:20.446Z,2.55
2019-02-23T06:07:56.179Z,2.52
2019-02-23T06:08:31.875Z,2.52
2019-02-23T06:09:07.579Z,2.51
2019-02-23T06:09:43.267Z,2.54
2019-02-23T06:10:18.667Z,2.49
2019-02-23T06:10:54.401Z,2.51
2019-02-23T06:11:30.095Z,2.48
2019-02-23T06:12:06.110Z,2.46
2019-02-23T06:12:41.797Z,2.47
2019-02-23T06:13:17.444Z,2.51
2019-02-23T06:13:52.886Z,2.51
2019-02-23T06:14:28.632Z,2.48
2019-02-23T06:15:04.188Z,2.48
2019-02-23T06:15:39.589Z,2.50
2019-02-23T06:16:15.389Z,2.56
2019-02-23T06:16:50.870Z,2.54
2019-02-23T06:17:26.318Z,2.55
2019-02-23T06:18:01.727Z,2.48
2019-02-23T06:18:37.797Z,2.50
2019-02-23T06:19:13.203Z,2.46
2019-02-23T06:19:48.924Z,2.52
2019-02-23T06:20:24.699Z,2.54
2019-02-23T06:21:00.111Z,2.51
2019-02-23T06:21:35.557Z,2.48
2019-02-23T06:22:11.073Z,2.41
2019-02-23T06:22:47.089Z,2.45
2019-02-23T06:23:22.487Z,2.46
2019-02-23T06:23:57.958Z,2.45
2019-02-23T06:24:33.707Z,2.43
2019-02-23T06:25:09.717Z,2.45
2019-02-23T06:25:45.430Z,2.45
2019-02-23T06:26:21.092Z,2.41
2019-02-23T06:26:56.768Z,2.42
2019-02-23T06:27:32.202Z,2.37
2019-02-23T06:28:07.678Z,2.38
2019-02-23T06:28:43.118Z,2.42
2019-02-23T06:29:18.804Z,2.39
2019-02-23T06:29:54.234Z,2.35
2019-02-23T06:30:29.685Z,2.40
2019-02-23T06:31:05.114Z,2.42
2019-02-23T06:31:40.510Z,2.45
2019-02-23T06:32:15.948Z,2.45
2019-02-23T06:32:51.341Z,2.46
2019-02-23T06:33:27.123Z,2.49
2019-02-23T06:34:12.526Z,2.49
2019-02-23T06:34:39.639Z,2.49
2019-02-23T06:35:15.382Z,2.48
2019-02-23T06:35:51.042Z,2.46
2019-02-23T06:36:26.613Z,2.43
2019-02-23T06:37:02.399Z,2.45
2019-02-23T06:37:37.774Z,2.45
2019-02-23T06:38:13.196Z,2.46
2019-02-23T06:38:48.648Z,2.47
2019-02-23T06:39:24.128Z,2.45
2019-02-23T06:39:59.649Z,2.48
2019-02-23T06:40:35.058Z,2.48
2019-02-23T06:41:10.738Z,2.50
2019-02-23T06:41:46.383Z,2.50
2019-02-23T06:42:22.125Z,2.48
2019-02-23T06:42:58.016Z,2.52
2019-02-23T06:43:33.368Z,2.54
2019-02-23T06:44:08.862Z,2.53
2019-02-23T06:44:44.342Z,2.50
2019-02-23T06:45:19.936Z,2.58
2019-02-23T06:45:55.686Z,2.53
2019-02-23T06:46:31.749Z,2.63
2019-02-23T06:47:07.322Z,2.60
2019-02-23T06:47:43.077Z,2.58
2019-02-23T06:48:19.984Z,2.55
2019-02-23T06:48:55.524Z,2.59
2019-02-23T06:49:31.088Z,2.53
2019-02-23T06:50:06.917Z,2.57
2019-02-23T06:50:42.941Z,2.54
2019-02-23T06:51:18.409Z,2.55
2019-02-23T06:52:03.933Z,2.58
2019-02-23T06:52:31.115Z,2.57
2019-02-23T06:53:06.849Z,2.65
2019-02-23T06:53:42.322Z,2.64
2019-02-23T06:54:17.987Z,2.61
2019-02-23T06:54:53.783Z,2.67
2019-02-23T06:55:29.589Z,2.79
2019-02-23T06:56:05.108Z,2.73
2019-02-23T06:56:40.535Z,2.70
2019-02-23T06:57:16.254Z,2.65
2019-02-23T06:57:51.680Z,2.62
2019-02-23T06:58:27.107Z,2.59
2019-02-23T06:59:02.612Z,2.67
2019-02-23T06:59:38.085Z,2.61
2019-02-23T07:00:14.543Z,2.59
2019-02-23T07:00:49.991Z,2.57
2019-02-23T07:01:25.720Z,2.55
2019-02-23T07:02:01.272Z,2.54
2019-02-23T07:02:36.780Z,2.53
2019-02-23T07:03:12.519Z,2.50
2019-02-23T07:03:47.958Z,2.51
2019-02-23T07:04:23.824Z,2.55
2019-02-23T07:04:59.832Z,2.54
2019-02-23T07:05:35.279Z,2.54
2019-02-23T07:06:10.891Z,2.50
2019-02-23T07:06:46.294Z,2.55
2019-02-23T07:07:22.086Z,2.52
2019-02-23T07:07:57.531Z,2.55
2019-02-23T07:08:33.002Z,2.58
2019-02-23T07:09:08.989Z,2.59
2019-02-23T07:09:44.392Z,2.55
2019-02-23T07:10:20.112Z,2.56
2019-02-23T07:10:56.560Z,2.57
2019-02-23T07:11:32.318Z,2.67
2019-02-23T07:12:08.044Z,2.61
2019-02-23T07:12:43.768Z,2.58
2019-02-23T07:13:19.445Z,2.61
2019-02-23T07:13:55.265Z,2.56
2019-02-23T07:14:32.031Z,2.53
2019-02-23T07:15:08.277Z,2.46
2019-02-23T07:15:43.735Z,2.58
2019-02-23T07:16:19.139Z,2.60
2019-02-23T07:16:55.147Z,2.55
2019-02-23T07:17:30.879Z,2.59
2019-02-23T07:18:06.607Z,2.63
2019-02-23T07:18:42.006Z,2.60
2019-02-23T07:19:17.472Z,2.61
2019-02-23T07:19:53.162Z,2.64
2019-02-23T07:20:28.778Z,2.57
2019-02-23T07:21:04.203Z,2.59
2019-02-23T07:21:39.862Z,2.61
2019-02-23T07:22:16.038Z,2.58
2019-02-23T07:22:51.736Z,2.63
2019-02-23T07:23:27.461Z,2.68
2019-02-23T07:24:02.902Z,2.62
2019-02-23T07:24:38.342Z,2.65
2019-02-23T07:25:13.794Z,2.75
2019-02-23T07:25:49.182Z,2.76
2019-02-23T07:26:24.623Z,2.79
2019-02-23T07:27:00.396Z,2.80
2019-02-23T07:27:35.826Z,2.79
2019-02-23T07:28:11.245Z,2.79
2019-02-23T07:28:46.901Z,2.80
2019-02-23T07:29:22.319Z,2.87
2019-02-23T07:30:00.542Z,2.85
2019-02-23T07:30:35.968Z,2.90
2019-02-23T07:31:11.621Z,2.88
2019-02-23T07:31:47.280Z,2.94
2019-02-23T07:32:22.692Z,2.89
2019-02-23T07:32:58.436Z,2.93
2019-02-23T07:33:33.960Z,2.91
2019-02-23T07:34:09.363Z,2.97
2019-02-23T07:34:45.022Z,2.93
2019-02-23T07:35:20.415Z,2.91
2019-02-23T07:35:55.898Z,2.91
2019-02-23T07:36:31.743Z,2.89
2019-02-23T07:37:07.416Z,2.83
2019-02-23T07:37:43.099Z,2.89
2019-02-23T07:38:18.498Z,2.98
2019-02-23T07:38:54.458Z,3.02
2019-02-23T07:39:29.910Z,3.01
2019-02-23T07:40:05.551Z,3.07
2019-02-23T07:40:40.948Z,3.06
2019-02-23T07:41:16.341Z,2.99
2019-02-23T07:41:52.025Z,3.01
2019-02-23T07:42:27.508Z,2.99
2019-02-23T07:43:03.241Z,3.01
2019-02-23T07:43:39.204Z,3.04
2019-02-23T07:44:14.907Z,3.01
2019-02-23T07:44:50.351Z,2.98
2019-02-23T07:45:26.066Z,3.06
2019-02-23T07:46:01.510Z,3.04
2019-02-23T07:46:37.013Z,3.04
2019-02-23T07:47:12.739Z,3.06
2019-02-23T07:47:48.127Z,3.04
2019-02-23T07:48:23.642Z,3.01
2019-02-23T07:48:59.648Z,3.00
2019-02-23T07:49:35.101Z,2.97
2019-02-23T07:50:10.760Z,2.94
2019-02-23T07:50:46.421Z,3.02
2019-02-23T07:51:22.497Z,3.08
2019-02-23T07:51:58.350Z,3.03
2019-02-23T07:52:33.870Z,3.09
2019-02-23T07:53:09.267Z,3.16
2019-02-23T07:53:44.964Z,3.09
2019-02-23T07:54:20.612Z,3.13
2019-02-23T07:54:56.103Z,3.11